createdAt,value
2023-11-15T00:01:28.792Z,8.24
2023-11-15T00:03:55.434Z,8.31
2023-11-15T00:06:22.190Z,8.35
2023-11-15T00:08:48.976Z,8.35
2023-11-15T00:11:20.116Z,8.43
2023-11-15T00:13:49.403Z,8.42
2023-11-15T00:16:16.820Z,8.41
2023-11-15T00:18:43.710Z,8.39
2023-11-15T00:21:10.304Z,8.36
2023-11-15T00:23:37.264Z,8.37
2023-11-15T00:26:05.356Z,8.33
2023-11-15T00:28:31.988Z,8.32
2023-11-15T00:30:59.188Z,8.37
2023-11-15T00:33:25.776Z,8.33
2023-11-15T00:35:52.579Z,8.40
2023-11-15T00:38:19.244Z,8.44
2023-11-15T00:40:45.921Z,8.31
2023-11-15T00:43:12.769Z,8.37
2023-11-15T00:45:39.550Z,8.35
2023-11-15T00:48:06.252Z,8.39
2023-11-15T00:50:32.928Z,8.43
2023-11-15T00:52:59.703Z,8.42
2023-11-15T00:55:26.234Z,8.36
2023-11-15T00:57:52.812Z,8.42
2023-11-15T01:00:26.840Z,8.46
2023-11-15T01:02:58.873Z,8.41
2023-11-15T01:05:25.957Z,8.42
2023-11-15T01:07:52.581Z,8.38
2023-11-15T01:10:20.070Z,8.40
2023-11-15T01:12:46.723Z,8.44
2023-11-15T01:15:13.345Z,8.31
2023-11-15T01:17:40.046Z,8.32
2023-11-15T01:20:07.187Z,8.26
2023-11-15T01:22:33.785Z,8.38
2023-11-15T01:25:00.700Z,8.37
2023-11-15T01:27:27.224Z,8.36
2023-11-15T01:29:53.777Z,8.31
2023-11-15T01:32:20.494Z,8.33
2023-11-15T01:34:47.052Z,8.30
2023-11-15T01:37:13.867Z,8.22
2023-11-15T01:39:40.582Z,8.32
2023-11-15T01:42:07.118Z,8.23
2023-11-15T01:44:35.279Z,8.21
2023-11-15T01:47:02.368Z,8.21
2023-11-15T01:49:29.080Z,8.19
2023-11-15T01:51:55.943Z,8.16
2023-11-15T01:54:24.133Z,8.21
2023-11-15T01:56:51.177Z,8.26
2023-11-15T01:59:17.883Z,8.31
2023-11-15T02:01:44.454Z,8.27
2023-11-15T02:04:11.184Z,8.27
2023-11-15T02:06:38.436Z,8.39
2023-11-15T02:09:06.615Z,8.38
2023-11-15T02:11:33.284Z,8.39
2023-11-15T02:14:00.405Z,8.32
2023-11-15T02:16:27.274Z,8.32
2023-11-15T02:18:53.856Z,8.30
2023-11-15T02:21:20.401Z,8.29
2023-11-15T02:23:47.281Z,8.26
2023-11-15T02:26:14.072Z,8.26
2023-11-15T02:28:41.037Z,8.20
2023-11-15T02:31:07.743Z,8.27
2023-11-15T02:33:34.410Z,8.26
2023-11-15T02:36:01.114Z,8.28
2023-11-15T02:38:27.702Z,8.27
2023-11-15T02:40:54.395Z,8.31
2023-11-15T02:43:21.209Z,8.32
2023-11-15T02:45:48.578Z,8.28
2023-11-15T02:48:15.286Z,8.35
2023-11-15T02:50:41.905Z,8.39
2023-11-15T02:53:08.498Z,8.36
2023-11-15T02:55:35.025Z,8.42
2023-11-15T02:58:02.284Z,8.46
2023-11-15T03:00:30.468Z,8.47
2023-11-15T03:02:57.515Z,8.45
2023-11-15T03:05:24.267Z,8.41
2023-11-15T03:07:51.010Z,8.40
2023-11-15T03:10:17.520Z,8.37
2023-11-15T03:12:44.363Z,8.25
2023-11-15T03:15:11.241Z,8.28
2023-11-15T03:17:39.122Z,8.27
2023-11-15T03:20:06.723Z,8.35
2023-11-15T03:22:33.944Z,8.33
2023-11-15T03:25:00.441Z,8.39
2023-11-15T03:27:27.077Z,8.44
2023-11-15T03:29:53.626Z,8.52
2023-11-15T03:32:20.273Z,8.48
2023-11-15T03:34:47.493Z,8.45
2023-11-15T03:37:15.719Z,8.50
2023-11-15T03:39:42.245Z,8.49
2023-11-15T03:42:08.864Z,8.52
2023-11-15T03:44:35.418Z,8.56
2023-11-15T03:47:02.026Z,8.55
2023-11-15T03:49:28.674Z,8.53
2023-11-15T03:51:55.243Z,8.50
2023-11-15T03:54:21.944Z,8.56
2023-11-15T03:56:49.407Z,8.43
2023-11-15T03:59:15.906Z,8.59
2023-11-15T04:01:52.264Z,8.53
2023-11-15T04:04:24.365Z,8.49
2023-11-15T04:06:51.351Z,8.49
2023-11-15T04:09:17.980Z,8.44
2023-11-15T04:11:44.814Z,8.45
2023-11-15T04:14:11.481Z,8.42
2023-11-15T04:16:38.053Z,8.46
2023-11-15T04:19:04.959Z,8.47
2023-11-15T04:21:31.981Z,8.47
2023-11-15T04:23:58.620Z,8.42
2023-11-15T04:26:25.225Z,8.33
2023-11-15T04:28:51.848Z,8.39
2023-11-15T04:31:18.703Z,8.44
2023-11-15T04:33:45.977Z,8.38
2023-11-15T04:36:12.893Z,8.31
2023-11-15T04:38:40.007Z,8.38
2023-11-15T04:41:08.136Z,8.36
2023-11-15T04:43:34.782Z,8.29
2023-11-15T04:46:01.514Z,8.26
2023-11-15T04:48:28.265Z,8.31
2023-11-15T04:50:55.976Z,8.31
2023-11-15T04:53:22.605Z,8.26
2023-11-15T04:55:49.251Z,8.24
2023-11-15T04:58:16.294Z,8.22
2023-11-15T05:00:43.869Z,8.23
2023-11-15T05:03:11.852Z,8.25
2023-11-15T05:05:40.465Z,8.21
2023-11-15T05:08:07.042Z,8.23
2023-11-15T05:10:33.589Z,8.16
2023-11-15T05:13:00.432Z,8.20
2023-11-15T05:15:27.176Z,8.16
2023-11-15T05:17:53.943Z,8.15
2023-11-15T05:20:21.249Z,8.13
2023-11-15T05:22:48.065Z,8.12
2023-11-15T05:25:17.204Z,8.14
2023-11-15T05:27:44.014Z,8.10
2023-11-15T05:30:10.841Z,8.09
2023-11-15T05:32:37.470Z,8.05
2023-11-15T05:35:04.667Z,8.07
2023-11-15T05:37:31.197Z,8.07
2023-11-15T05:39:57.758Z,7.98
2023-11-15T05:42:24.274Z,7.94
2023-11-15T05:44:50.854Z,7.91
2023-11-15T05:47:17.385Z,7.87
2023-11-15T05:49:43.864Z,7.88
2023-11-15T05:52:10.380Z,7.95
2023-11-15T05:54:37.330Z,7.94
2023-11-15T05:57:06.132Z,7.86
2023-11-15T05:59:32.719Z,7.80
2023-11-15T06:01:59.472Z,7.89
2023-11-15T06:04:26.113Z,7.79
2023-11-15T06:06:52.654Z,7.84
2023-11-15T06:09:19.195Z,7.85
2023-11-15T06:11:45.849Z,7.69
2023-11-15T06:14:15.943Z,7.84
2023-11-15T06:16:43.184Z,7.79
2023-11-15T06:19:10.290Z,7.72
2023-11-15T06:21:37.541Z,7.71
2023-11-15T06:24:05.730Z,7.72
2023-11-15T06:26:37.754Z,7.70
2023-11-15T06:29:06.437Z,7.63
2023-11-15T06:31:34.141Z,7.59
2023-11-15T06:34:00.893Z,7.63
2023-11-15T06:36:27.602Z,7.57
2023-11-15T06:38:54.166Z,7.56
2023-11-15T06:41:20.681Z,7.56
2023-11-15T06:43:47.420Z,7.63
2023-11-15T06:46:19.890Z,7.63
2023-11-15T06:48:48.342Z,7.65
2023-11-15T06:51:15.045Z,7.78
2023-11-15T06:53:41.600Z,7.87
2023-11-15T06:56:08.671Z,7.91
2023-11-15T06:58:35.985Z,7.84
2023-11-15T07:01:02.599Z,7.89
2023-11-15T07:03:29.962Z,7.84
2023-11-15T07:05:56.652Z,7.87
2023-11-15T07:08:23.396Z,7.92
2023-11-15T07:10:50.039Z,7.99
2023-11-15T07:13:18.197Z,8.00
2023-11-15T07:15:45.689Z,8.00
2023-11-15T07:18:13.430Z,8.09
2023-11-15T07:20:41.278Z,8.16
2023-11-15T07:23:08.008Z,8.16
2023-11-15T07:25:35.127Z,8.10
2023-11-15T07:28:01.773Z,8.07
2023-11-15T07:30:28.496Z,8.02
2023-11-15T07:32:56.419Z,8.07
2023-11-15T07:35:23.157Z,8.16
2023-11-15T07:37:49.731Z,8.17
2023-11-15T07:40:16.920Z,8.22
2023-11-15T07:42:43.647Z,8.25
2023-11-15T07:45:10.768Z,8.27
2023-11-15T07:47:37.510Z,8.31
2023-11-15T07:50:05.380Z,8.42
2023-11-15T07:52:34.667Z,8.80
2023-11-15T07:55:02.356Z,8.52
2023-11-15T07:57:29.062Z,8.54
2023-11-15T07:59:55.838Z,8.62
2023-11-15T08:02:24.043Z,8.45
2023-11-15T08:04:51.744Z,8.43
2023-11-15T08:07:19.465Z,8.50
2023-11-15T08:09:48.636Z,8.53
2023-11-15T08:12:15.758Z,8.56
2023-11-15T08:14:42.384Z,8.60
2023-11-15T08:17:09.012Z,8.46
2023-11-15T08:19:35.581Z,8.54
2023-11-15T08:22:03.324Z,8.51
2023-11-15T08:24:30.004Z,8.55
2023-11-15T08:26:57.298Z,8.58
2023-11-15T08:29:24.228Z,8.71
2023-11-15T08:31:51.300Z,8.74
2023-11-15T08:34:22.468Z,8.61
2023-11-15T08:36:50.476Z,8.67
2023-11-15T08:39:18.017Z,8.66
2023-11-15T08:41:47.204Z,8.75
2023-11-15T08:44:14.105Z,8.72
2023-11-15T08:46:46.278Z,8.73
2023-11-15T08:49:14.116Z,8.75
2023-11-15T08:51:42.132Z,8.65
2023-11-15T08:54:09.719Z,8.64
2023-11-15T08:56:37.255Z,8.70
2023-11-15T08:59:05.142Z,8.83
2023-11-15T09:01:31.895Z,8.95
2023-11-15T09:03:58.773Z,9.22
2023-11-15T09:06:25.747Z,9.29
2023-11-15T09:08:52.473Z,8.85
2023-11-15T09:11:19.174Z,8.75
2023-11-15T09:13:48.005Z,8.69
2023-11-15T09:16:15.074Z,8.77
2023-11-15T09:18:45.292Z,8.83
2023-11-15T09:21:12.464Z,8.91
2023-11-15T09:23:42.499Z,9.20
2023-11-15T09:26:19.534Z,9.34
2023-11-15T09:28:47.903Z,9.72
2023-11-15T09:31:14.734Z,9.74
2023-11-15T09:33:41.479Z,9.78
2023-11-15T09:36:11.902Z,9.79
2023-11-15T09:38:40.867Z,10.01
2023-11-15T09:41:13.215Z,10.38
2023-11-15T09:43:41.011Z,9.99
2023-11-15T09:46:13.708Z,9.82
2023-11-15T09:48:51.069Z,9.52
2023-11-15T09:51:27.127Z,9.49
2023-11-15T09:54:04.721Z,9.51
2023-11-15T09:56:35.453Z,9.75
2023-11-15T09:59:02.303Z,9.39
2023-11-15T10:01:28.809Z,9.30
2023-11-15T10:03:55.487Z,9.38
2023-11-15T10:06:22.898Z,9.31
2023-11-15T10:08:54.839Z,9.35
2023-11-15T10:11:25.565Z,9.44
2023-11-15T10:14:08.733Z,9.43
2023-11-15T10:16:35.463Z,9.23
2023-11-15T10:19:01.951Z,9.28
2023-11-15T10:21:29.901Z,9.15
2023-11-15T10:24:12.258Z,9.23
2023-11-15T10:26:39.893Z,9.57
2023-11-15T10:29:13.925Z,9.70
2023-11-15T10:31:54.588Z,9.98
2023-11-15T10:34:23.950Z,10.30
2023-11-15T10:37:11.410Z,10.56
2023-11-15T10:39:48.044Z,10.58
2023-11-15T10:42:16.968Z,10.43
2023-11-15T10:44:50.299Z,10.31
2023-11-15T10:47:21.152Z,10.08
2023-11-15T10:49:54.698Z,10.03
2023-11-15T10:52:22.983Z,10.09
2023-11-15T10:54:51.445Z,9.97
2023-11-15T10:57:22.293Z,9.94
2023-11-15T10:59:49.704Z,10.00
2023-11-15T11:02:18.638Z,10.36
2023-11-15T11:04:47.528Z,10.48
2023-11-15T11:07:41.492Z,10.75
2023-11-15T11:10:13.646Z,10.57
2023-11-15T11:12:41.551Z,10.38
2023-11-15T11:15:28.759Z,10.30
2023-11-15T11:18:13.335Z,10.35
2023-11-15T11:20:42.269Z,10.39
2023-11-15T11:23:18.098Z,10.62
2023-11-15T11:25:48.437Z,10.84
2023-11-15T11:28:16.760Z,10.91
2023-11-15T11:30:44.341Z,10.47
2023-11-15T11:33:15.254Z,10.32
2023-11-15T11:35:43.234Z,10.19
2023-11-15T11:38:15.592Z,9.99
2023-11-15T11:40:43.810Z,9.41
2023-11-15T11:43:22.805Z,9.27
2023-11-15T11:45:53.308Z,9.26
2023-11-15T11:48:39.100Z,9.22
2023-11-15T11:51:07.204Z,9.27
2023-11-15T11:53:41.092Z,9.19
2023-11-15T11:56:09.870Z,8.99
2023-11-15T11:58:38.315Z,8.90
2023-11-15T12:01:09.469Z,8.44
2023-11-15T12:03:39.488Z,8.26
2023-11-15T12:06:08.721Z,7.82
2023-11-15T12:08:41.480Z,7.41
2023-11-15T12:11:09.466Z,7.47
2023-11-15T12:13:44.157Z,7.45
2023-11-15T12:16:18.807Z,7.59
2023-11-15T12:19:03.637Z,7.58
2023-11-15T12:21:43.833Z,7.94
2023-11-15T12:24:14.430Z,8.35
2023-11-15T12:26:48.505Z,8.55
2023-11-15T12:29:27.905Z,8.94
2023-11-15T12:31:57.040Z,8.82
2023-11-15T12:34:25.450Z,8.85
2023-11-15T12:36:52.882Z,8.93
2023-11-15T12:39:22.695Z,8.89
2023-11-15T12:41:51.384Z,8.79
2023-11-15T12:44:18.078Z,8.64
2023-11-15T12:46:45.103Z,8.52
2023-11-15T12:49:15.204Z,8.39
2023-11-15T12:51:46.595Z,8.32
2023-11-15T12:54:14.267Z,8.31
2023-11-15T12:56:41.065Z,8.31
2023-11-15T12:59:11.880Z,8.41
2023-11-15T13:01:42.332Z,8.44
2023-11-15T13:04:09.311Z,8.38
2023-11-15T13:06:39.549Z,8.37
2023-11-15T13:09:09.012Z,8.44
2023-11-15T13:11:36.541Z,8.32
2023-11-15T13:14:03.198Z,8.50
2023-11-15T13:16:29.769Z,8.39
2023-11-15T13:18:56.294Z,8.42
2023-11-15T13:21:23.405Z,8.26
2023-11-15T13:23:53.227Z,8.36
2023-11-15T13:26:20.970Z,8.43
2023-11-15T13:28:49.162Z,8.38
2023-11-15T13:31:18.963Z,8.29
2023-11-15T13:33:49.480Z,8.18
2023-11-15T13:36:19.253Z,8.15
2023-11-15T13:38:46.926Z,8.18
2023-11-15T13:41:16.600Z,8.02
2023-11-15T13:43:43.200Z,8.05
2023-11-15T13:46:10.190Z,8.09
2023-11-15T13:48:37.763Z,8.05
2023-11-15T13:51:08.238Z,8.09
2023-11-15T13:53:37.716Z,7.93
2023-11-15T13:56:06.196Z,7.92
2023-11-15T13:58:33.049Z,7.85
2023-11-15T14:01:00.043Z,7.87
2023-11-15T14:03:27.846Z,7.88
2023-11-15T14:05:58.928Z,7.79
2023-11-15T14:08:27.178Z,7.89
2023-11-15T14:10:53.746Z,7.79
2023-11-15T14:13:20.313Z,7.86
2023-11-15T14:15:47.247Z,7.77
2023-11-15T14:18:16.892Z,7.74
2023-11-15T14:20:43.630Z,7.70
2023-11-15T14:23:14.192Z,7.69
2023-11-15T14:25:40.712Z,7.65
2023-11-15T14:28:07.253Z,7.44
2023-11-15T14:30:34.655Z,7.47
2023-11-15T14:33:01.841Z,7.43
2023-11-15T14:35:29.663Z,7.40
2023-11-15T14:37:57.172Z,7.32
2023-11-15T14:40:24.343Z,7.32
2023-11-15T14:42:53.141Z,7.30
2023-11-15T14:45:20.569Z,7.27
2023-11-15T14:47:47.759Z,7.25
2023-11-15T14:50:18.622Z,7.19
2023-11-15T14:52:54.043Z,7.19
2023-11-15T14:55:21.083Z,7.20
2023-11-15T14:57:50.241Z,7.19
2023-11-15T15:00:21.644Z,7.24
2023-11-15T15:02:49.958Z,7.15
2023-11-15T15:05:17.740Z,7.19
2023-11-15T15:07:45.619Z,7.20
2023-11-15T15:10:19.221Z,7.27
2023-11-15T15:12:46.250Z,7.44
2023-11-15T15:15:17.210Z,7.46
2023-11-15T15:17:44.906Z,7.48
2023-11-15T15:20:12.145Z,7.54
2023-11-15T15:22:38.625Z,7.56
2023-11-15T15:25:06.898Z,7.57
2023-11-15T15:27:33.451Z,7.64
2023-11-15T15:30:01.333Z,7.65
2023-11-15T15:32:28.547Z,7.66
2023-11-15T15:34:55.744Z,7.54
2023-11-15T15:37:22.311Z,7.27
2023-11-15T15:39:51.058Z,7.18
2023-11-15T15:42:20.445Z,6.80
2023-11-15T15:44:48.451Z,6.69
2023-11-15T15:47:15.150Z,6.72
2023-11-15T15:49:47.673Z,6.64
2023-11-15T15:52:15.587Z,6.67
2023-11-15T15:54:43.857Z,6.59
2023-11-15T15:57:11.170Z,6.59
2023-11-15T15:59:39.019Z,6.46
2023-11-15T16:02:06.950Z,6.52
2023-11-15T16:04:34.656Z,6.50
2023-11-15T16:07:01.283Z,6.50
2023-11-15T16:09:28.542Z,6.54
2023-11-15T16:11:58.242Z,6.58
2023-11-15T16:14:25.628Z,6.57
2023-11-15T16:16:52.374Z,6.60
2023-11-15T16:19:21.592Z,6.66
2023-11-15T16:21:49.705Z,6.74
2023-11-15T16:24:18.681Z,6.80
2023-11-15T16:26:46.471Z,6.81
2023-11-15T16:29:16.733Z,6.74
2023-11-15T16:31:48.760Z,6.78
2023-11-15T16:34:16.103Z,6.79
2023-11-15T16:36:44.996Z,6.83
2023-11-15T16:39:11.965Z,6.85
2023-11-15T16:41:51.479Z,6.89
2023-11-15T16:44:18.671Z,6.87
2023-11-15T16:46:47.302Z,6.94
2023-11-15T16:49:15.417Z,6.93
2023-11-15T16:51:42.449Z,6.97
2023-11-15T16:54:09.065Z,6.95
2023-11-15T16:56:35.731Z,6.99
2023-11-15T16:59:02.590Z,7.03
2023-11-15T17:01:36.632Z,6.99
2023-11-15T17:04:04.664Z,7.01
2023-11-15T17:06:33.551Z,7.00
2023-11-15T17:09:02.103Z,7.00
2023-11-15T17:11:30.943Z,7.01
2023-11-15T17:13:59.690Z,6.97
2023-11-15T17:16:29.334Z,6.98
2023-11-15T17:18:57.172Z,6.95
2023-11-15T17:21:27.002Z,6.93
2023-11-15T17:23:54.783Z,6.92
2023-11-15T17:26:21.480Z,6.93
2023-11-15T17:28:48.268Z,6.86
2023-11-15T17:31:14.927Z,6.88
2023-11-15T17:33:42.798Z,6.88
2023-11-15T17:36:10.285Z,6.84
2023-11-15T17:38:36.991Z,6.82
2023-11-15T17:41:05.028Z,6.76
2023-11-15T17:43:31.730Z,6.76
2023-11-15T17:45:58.448Z,6.74
2023-11-15T17:48:25.158Z,6.69
2023-11-15T17:50:51.897Z,6.64
2023-11-15T17:53:19.014Z,6.59
2023-11-15T17:55:45.834Z,6.56
2023-11-15T17:58:12.442Z,6.52
2023-11-15T18:00:39.656Z,6.44
2023-11-15T18:03:06.675Z,6.43
2023-11-15T18:05:33.698Z,6.46
2023-11-15T18:08:00.387Z,6.52
2023-11-15T18:10:30.008Z,6.51
2023-11-15T18:12:57.908Z,6.52
2023-11-15T18:15:24.778Z,6.61
2023-11-15T18:17:51.973Z,6.61
2023-11-15T18:20:18.542Z,6.65
2023-11-15T18:22:46.147Z,6.67
2023-11-15T18:25:13.421Z,6.61
2023-11-15T18:27:41.250Z,6.58
2023-11-15T18:30:14.423Z,6.53
2023-11-15T18:32:44.356Z,6.54
2023-11-15T18:35:11.129Z,6.50
2023-11-15T18:37:37.739Z,6.49
2023-11-15T18:40:06.264Z,6.43
2023-11-15T18:42:33.277Z,6.45
2023-11-15T18:45:00.385Z,6.36
2023-11-15T18:47:28.082Z,6.32
2023-11-15T18:49:54.800Z,6.32
2023-11-15T18:52:21.597Z,6.26
2023-11-15T18:54:48.168Z,6.22
2023-11-15T18:57:14.648Z,6.23
2023-11-15T18:59:41.315Z,6.21
2023-11-15T19:02:08.817Z,6.18
2023-11-15T19:04:36.435Z,6.14
2023-11-15T19:07:04.818Z,6.21
2023-11-15T19:09:35.696Z,6.19
2023-11-15T19:12:02.622Z,6.18
2023-11-15T19:14:34.008Z,6.17
2023-11-15T19:17:04.746Z,6.16
2023-11-15T19:19:31.336Z,6.14
2023-11-15T19:21:57.820Z,6.13
2023-11-15T19:24:24.657Z,6.13
2023-11-15T19:26:51.392Z,6.09
2023-11-15T19:29:18.028Z,6.06
2023-11-15T19:31:45.299Z,6.04
2023-11-15T19:34:14.630Z,6.22
2023-11-15T19:36:41.658Z,6.19
2023-11-15T19:39:11.627Z,6.25
2023-11-15T19:41:38.785Z,6.21
2023-11-15T19:44:08.726Z,6.27
2023-11-15T19:46:35.243Z,6.28
2023-11-15T19:49:01.942Z,6.33
2023-11-15T19:51:37.466Z,6.42
2023-11-15T19:54:06.744Z,6.48
2023-11-15T19:56:33.441Z,6.48
2023-11-15T19:59:00.382Z,6.53
2023-11-15T20:01:27.079Z,6.52
2023-11-15T20:03:54.646Z,6.56
2023-11-15T20:06:21.556Z,6.55
2023-11-15T20:08:49.297Z,6.46
2023-11-15T20:11:19.958Z,6.51
2023-11-15T20:13:46.491Z,6.58
2023-11-15T20:16:13.066Z,6.49
2023-11-15T20:18:41.219Z,6.52
2023-11-15T20:21:09.023Z,6.48
2023-11-15T20:23:37.849Z,6.54
2023-11-15T20:26:04.776Z,6.54
2023-11-15T20:28:38.852Z,6.64
2023-11-15T20:31:09.555Z,6.55
2023-11-15T20:33:36.446Z,6.54
2023-11-15T20:36:03.436Z,6.58
2023-11-15T20:38:30.016Z,6.49
2023-11-15T20:40:56.523Z,6.48
2023-11-15T20:43:22.990Z,6.45
2023-11-15T20:46:04.344Z,6.45
2023-11-15T20:48:37.505Z,6.44
2023-11-15T20:51:04.490Z,6.48
2023-11-15T20:53:31.165Z,6.43
2023-11-15T20:55:59.593Z,6.44
2023-11-15T20:58:27.609Z,6.49
2023-11-15T21:00:54.595Z,6.52
2023-11-15T21:03:21.811Z,6.50
2023-11-15T21:05:48.563Z,6.54
2023-11-15T21:08:15.113Z,6.63
2023-11-15T21:10:41.953Z,6.68
2023-11-15T21:13:09.750Z,6.66
2023-11-15T21:15:36.303Z,6.69
2023-11-15T21:18:04.746Z,6.67
2023-11-15T21:20:41.426Z,6.72
2023-11-15T21:23:08.447Z,6.70
2023-11-15T21:25:35.718Z,6.72
2023-11-15T21:28:02.305Z,6.66
2023-11-15T21:30:30.757Z,6.71
2023-11-15T21:32:57.402Z,6.71
2023-11-15T21:35:23.959Z,6.70
2023-11-15T21:37:50.490Z,6.66
2023-11-15T21:40:19.734Z,6.63
2023-11-15T21:42:50.187Z,6.60
2023-11-15T21:45:18.293Z,6.60
2023-11-15T21:47:48.724Z,6.58
2023-11-15T21:50:16.422Z,6.53
2023-11-15T21:52:44.541Z,6.58
2023-11-15T21:55:11.786Z,6.55
2023-11-15T21:57:38.652Z,6.44
2023-11-15T22:00:08.055Z,6.48
2023-11-15T22:02:36.777Z,6.51
2023-11-15T22:05:04.156Z,6.41
2023-11-15T22:07:31.040Z,6.30
2023-11-15T22:09:57.771Z,6.27
2023-11-15T22:12:24.367Z,6.17
2023-11-15T22:14:50.940Z,6.14
2023-11-15T22:17:17.440Z,6.12
2023-11-15T22:19:43.917Z,6.11
2023-11-15T22:22:10.587Z,6.14
2023-11-15T22:24:37.157Z,6.20
2023-11-15T22:27:03.963Z,6.19
2023-11-15T22:29:31.239Z,6.24
2023-11-15T22:31:57.756Z,6.23
2023-11-15T22:34:24.301Z,6.25
2023-11-15T22:36:50.828Z,6.32
2023-11-15T22:39:17.345Z,6.39
2023-11-15T22:41:43.985Z,6.42
2023-11-15T22:44:10.585Z,6.44
2023-11-15T22:46:37.151Z,6.46
2023-11-15T22:49:03.964Z,6.40
2023-11-15T22:51:30.572Z,6.48
2023-11-15T22:53:57.663Z,6.52
2023-11-15T22:56:24.190Z,6.46
2023-11-15T22:58:50.642Z,6.48
2023-11-15T23:01:17.720Z,6.43
2023-11-15T23:03:44.598Z,6.50
2023-11-15T23:06:12.857Z,6.50
2023-11-15T23:08:40.881Z,6.54
2023-11-15T23:11:11.293Z,6.54
2023-11-15T23:13:37.976Z,6.54
2023-11-15T23:16:04.973Z,6.53
2023-11-15T23:18:31.450Z,6.55
2023-11-15T23:20:59.239Z,6.50
2023-11-15T23:23:26.296Z,6.48
2023-11-15T23:25:52.900Z,6.53
2023-11-15T23:28:20.167Z,6.48
2023-11-15T23:30:46.680Z,6.47
2023-11-15T23:33:14.195Z,6.42
2023-11-15T23:35:40.770Z,6.41
2023-11-15T23:38:07.302Z,6.27
2023-11-15T23:40:33.988Z,6.27
2023-11-15T23:43:00.669Z,6.23
2023-11-15T23:45:29.118Z,6.14
2023-11-15T23:47:56.402Z,6.02
2023-11-15T23:50:25.876Z,5.99
2023-11-15T23:52:53.100Z,5.95
2023-11-15T23:55:20.749Z,5.88
2023-11-15T23:57:50.140Z,5.85
